Time;durP1;ratioP1;P1;durP2;ratioP2;P2;SDS_P1;SDS_P2;PMS_P1;PMS_P2;Temp;Humidity;BMP_temperature;BMP_pressure;BME280_temperature;BME280_humidity;BME280_pressure;Samples;Min_cycle;Max_cycle;Signal;HPM_P1;HPM_P2
2022/01/07 00:02:20;;;;;;;9.02;4.65;;;;;;;3.71;100.00;101185.00;5045974;28;20567;-69
2022/01/07 00:04:46;;;;;;;9.18;4.72;;;;;;;3.61;100.00;101188.22;5042671;28;20033;-69
2022/01/07 00:07:11;;;;;;;12.93;5.25;;;;;;;3.74;100.00;101187.25;5046079;28;20051;-69
2022/01/07 00:09:37;;;;;;;10.93;4.80;;;;;;;3.88;100.00;101185.19;5026741;28;20525;-70
2022/01/07 00:12:04;;;;;;;10.48;4.50;;;;;;;3.79;100.00;101173.00;5043063;28;20033;-70
2022/01/07 00:14:30;;;;;;;10.02;4.57;;;;;;;3.53;100.00;101169.56;5042136;28;20487;-70
2022/01/07 00:16:56;;;;;;;12.48;4.78;;;;;;;3.69;100.00;101170.84;5043951;28;20530;-69
2022/01/07 00:19:21;;;;;;;9.32;4.70;;;;;;;3.76;100.00;101158.00;5043349;28;20060;-69
2022/01/07 00:21:47;;;;;;;10.73;4.80;;;;;;;3.76;100.00;101157.19;5042400;28;20025;-70
2022/01/07 00:24:12;;;;;;;9.45;4.72;;;;;;;3.77;100.00;101150.69;5046451;28;20407;-69
2022/01/07 00:26:38;;;;;;;10.05;4.97;;;;;;;3.63;100.00;101148.16;5045906;28;20349;-70
2022/01/07 00:29:03;;;;;;;12.70;4.60;;;;;;;3.89;100.00;101145.31;5043502;28;20060;-70
2022/01/07 00:31:29;;;;;;;12.02;5.10;;;;;;;3.71;100.00;101151.63;5027602;28;20041;-71
2022/01/07 00:33:55;;;;;;;11.45;4.80;;;;;;;3.94;100.00;101142.75;5008935;28;20029;-70
2022/01/07 00:36:20;;;;;;;10.63;4.75;;;;;;;3.67;100.00;101143.09;5045880;28;20487;-71
2022/01/07 00:38:46;;;;;;;8.93;4.70;;;;;;;3.82;100.00;101135.41;5041951;28;20032;-71
2022/01/07 00:41:12;;;;;;;10.57;5.10;;;;;;;3.99;100.00;101134.75;5044436;28;20447;-70
2022/01/07 00:43:37;;;;;;;9.88;4.40;;;;;;;3.99;100.00;101123.91;5043640;28;20116;-70
2022/01/07 00:46:02;;;;;;;10.55;5.13;;;;;;;3.77;100.00;101129.84;5041858;28;20039;-70
2022/01/07 00:48:28;;;;;;;9.07;4.88;;;;;;;4.05;100.00;101131.94;5047031;28;20043;-70
2022/01/07 00:50:53;;;;;;;11.88;5.57;;;;;;;3.90;100.00;101120.66;5043839;28;20415;-69
2022/01/07 00:53:19;;;;;;;12.63;5.03;;;;;;;3.82;100.00;101112.84;5035938;28;20127;-69
2022/01/07 00:55:44;;;;;;;11.20;5.88;;;;;;;3.94;100.00;101110.19;5057624;28;20025;-70
2022/01/07 00:58:10;;;;;;;14.73;5.80;;;;;;;4.03;100.00;101115.06;5051444;28;20470;-71
2022/01/07 01:00:36;;;;;;;12.88;5.47;;;;;;;4.12;100.00;101106.59;5046323;28;20029;-70
2022/01/07 01:03:02;;;;;;;12.20;5.30;;;;;;;4.12;100.00;101109.31;5047764;28;20115;-71
2022/01/07 01:05:28;;;;;;;12.77;5.95;;;;;;;3.87;100.00;101102.16;5046933;28;20057;-69
2022/01/07 01:07:53;;;;;;;11.10;6.00;;;;;;;4.08;100.00;101103.50;5040162;28;20039;-70
2022/01/07 01:10:22;;;;;;;14.02;6.68;;;;;;;4.17;100.00;101104.00;5056262;28;20036;-70
2022/01/07 01:12:48;;;;;;;10.63;6.55;;;;;;;4.13;100.00;101092.78;5058349;28;20024;-71
2022/01/07 01:15:16;;;;;;;12.07;6.68;;;;;;;4.19;100.00;101091.03;5025855;28;20067;-71
2022/01/07 01:17:42;;;;;;;9.35;6.07;;;;;;;3.99;100.00;101091.34;5042211;28;20063;-71
2022/01/07 01:20:10;;;;;;;13.57;6.35;;;;;;;4.16;100.00;101091.47;5052760;28;20056;-70
2022/01/07 01:22:37;;;;;;;13.00;6.43;;;;;;;3.95;100.00;101087.41;5024391;28;20115;-68
2022/01/07 01:25:04;;;;;;;11.85;6.57;;;;;;;4.00;100.00;101088.41;5042122;28;20037;-70
2022/01/07 01:27:34;;;;;;;11.23;6.82;;;;;;;4.12;100.00;101088.41;5036680;28;20028;-70
2022/01/07 01:30:02;;;;;;;10.45;6.70;;;;;;;3.84;100.00;101081.75;5051915;28;20082;-69
2022/01/07 01:32:27;;;;;;;10.00;6.25;;;;;;;3.79;100.00;101075.38;5063218;28;20028;-69
2022/01/07 01:34:53;;;;;;;14.10;6.95;;;;;;;4.10;100.00;101082.41;5060808;28;20035;-69
2022/01/07 01:37:18;;;;;;;11.70;7.32;;;;;;;4.07;100.00;101080.16;5060937;28;20025;-69
2022/01/07 01:39:43;;;;;;;9.38;6.80;;;;;;;3.82;100.00;101055.91;5054530;28;20471;-69
2022/01/07 01:42:09;;;;;;;13.38;7.38;;;;;;;3.98;100.00;101066.06;5040255;28;20039;-68
2022/01/07 01:44:34;;;;;;;11.48;7.18;;;;;;;4.09;100.00;101063.63;5031813;28;20028;-69
2022/01/07 01:47:00;;;;;;;15.07;8.05;;;;;;;3.92;100.00;101058.88;5038767;28;20060;-69
2022/01/07 01:49:25;;;;;;;12.82;7.45;;;;;;;3.82;100.00;101042.34;5048513;28;21305;-70
2022/01/07 01:51:52;;;;;;;13.63;7.82;;;;;;;4.03;100.00;101055.38;5055612;28;20386;-69
2022/01/07 01:54:17;;;;;;;12.30;7.55;;;;;;;3.71;100.00;101043.97;5061760;28;20064;-70
2022/01/07 01:56:43;;;;;;;11.20;7.75;;;;;;;3.88;100.00;101052.25;5060607;28;20059;-69
2022/01/07 01:59:09;;;;;;;13.45;8.32;;;;;;;3.96;100.00;101041.06;5045347;28;20021;-70
2022/01/07 02:01:35;;;;;;;15.25;8.40;;;;;;;4.14;100.00;101047.47;5043475;28;20337;-70
2022/01/07 02:04:01;;;;;;;12.32;8.80;;;;;;;4.05;100.00;101042.41;5049852;28;20036;-69
2022/01/07 02:06:26;;;;;;;13.98;8.93;;;;;;;3.89;100.00;101034.94;5061672;28;20364;-72
2022/01/07 02:08:52;;;;;;;11.60;8.80;;;;;;;4.09;100.00;101025.66;5061171;28;20059;-70
2022/01/07 02:11:18;;;;;;;15.27;8.98;;;;;;;4.02;100.00;101032.00;5043667;28;20032;-70
2022/01/07 02:13:48;;;;;;;12.82;9.00;;;;;;;4.29;100.00;101028.03;5059788;28;20131;-70
2022/01/07 02:16:16;;;;;;;15.18;9.73;;;;;;;4.13;100.00;101033.09;5053908;28;20092;-70
2022/01/07 02:18:43;;;;;;;16.90;9.48;;;;;;;4.17;100.00;101017.97;5038500;28;20021;-70
2022/01/07 02:21:09;;;;;;;15.05;9.43;;;;;;;4.10;100.00;101021.84;5043012;28;20489;-70
2022/01/07 02:23:36;;;;;;;16.27;9.48;;;;;;;4.20;100.00;101014.00;5045419;28;20029;-70
2022/01/07 02:26:02;;;;;;;12.70;8.30;;;;;;;4.09;100.00;100998.53;5019658;28;20037;-71
2022/01/07 02:28:29;;;;;;;13.32;9.30;;;;;;;4.12;100.00;101006.19;5041134;28;20222;-70
2022/01/07 02:30:55;;;;;;;12.98;9.05;;;;;;;4.30;100.00;101016.13;5054791;28;20048;-70
2022/01/07 02:33:20;;;;;;;15.07;8.65;;;;;;;4.24;100.00;101012.44;5057573;28;20128;-71
2022/01/07 02:35:47;;;;;;;12.45;8.82;;;;;;;4.24;100.00;100998.88;5022749;28;20487;-70
2022/01/07 02:38:16;;;;;;;11.55;8.57;;;;;;;4.11;100.00;100999.09;5042699;28;20043;-70
2022/01/07 02:40:42;;;;;;;11.05;8.63;;;;;;;4.13;100.00;101002.41;5063270;28;20548;-71
2022/01/07 02:43:08;;;;;;;9.98;8.85;;;;;;;4.19;100.00;100996.03;5038104;28;20024;-70
2022/01/07 02:45:34;;;;;;;9.40;8.43;;;;;;;4.22;100.00;101006.44;5044869;28;20166;-69
2022/01/07 02:48:02;;;;;;;12.30;9.85;;;;;;;4.29;100.00;100993.56;5056818;28;20067;-70
2022/01/07 02:50:35;;;;;;;13.73;9.75;;;;;;;4.11;100.00;100999.09;5047886;28;20391;-70
2022/01/07 02:53:01;;;;;;;12.43;8.98;;;;;;;4.35;100.00;100998.03;5037420;28;20059;-70
2022/01/07 02:55:27;;;;;;;12.40;9.82;;;;;;;4.38;100.00;100997.56;5043063;28;20037;-71
2022/01/07 02:57:53;;;;;;;13.93;9.93;;;;;;;4.19;100.00;100996.03;5056602;28;20735;-70
2022/01/07 03:00:20;;;;;;;11.70;10.48;;;;;;;4.42;100.00;100992.50;5061630;28;20036;-70
2022/01/07 03:02:49;;;;;;;11.50;10.35;;;;;;;4.49;100.00;100995.91;5051949;28;20029;-70
2022/01/07 03:05:15;;;;;;;13.02;10.27;;;;;;;4.31;100.00;100993.31;5047079;28;20040;-70
2022/01/07 03:07:41;;;;;;;13.70;10.38;;;;;;;4.41;100.00;100985.41;5042403;28;20041;-70
2022/01/07 03:10:09;;;;;;;13.65;10.43;;;;;;;4.37;100.00;100987.75;5040461;28;20369;-70
2022/01/07 03:12:36;;;;;;;17.40;11.20;;;;;;;4.41;100.00;100988.97;5035951;28;20078;-68
2022/01/07 03:15:07;;;;;;;15.38;11.30;;;;;;;4.59;100.00;100977.13;5036793;28;20132;-70
2022/01/07 03:17:32;;;;;;;16.25;11.15;;;;;;;4.55;100.00;100970.50;5059549;28;20028;-70
2022/01/07 03:19:58;;;;;;;15.65;12.18;;;;;;;4.56;100.00;100965.94;5044988;28;20028;-70
2022/01/07 03:22:23;;;;;;;20.50;13.88;;;;;;;4.53;100.00;100960.97;5070585;28;20024;-70
2022/01/07 03:24:49;;;;;;;13.70;11.20;;;;;;;4.66;100.00;100955.28;5051904;28;20029;-70
2022/01/07 03:27:15;;;;;;;14.55;11.35;;;;;;;4.62;100.00;100943.22;5062398;28;20066;-71
2022/01/07 03:29:40;;;;;;;15.50;12.15;;;;;;;4.70;100.00;100937.41;5045055;28;20032;-71
2022/01/07 03:32:07;;;;;;;17.42;12.32;;;;;;;4.54;100.00;100930.03;5055567;28;20746;-70
2022/01/07 03:34:32;;;;;;;13.88;11.52;;;;;;;4.59;100.00;100921.97;5042719;28;20172;-71
2022/01/07 03:36:57;;;;;;;14.35;11.60;;;;;;;4.62;100.00;100924.22;5033464;28;20110;-70
2022/01/07 03:39:23;;;;;;;15.82;11.38;;;;;;;4.69;100.00;100918.63;5065349;28;20024;-69
2022/01/07 03:41:49;;;;;;;15.07;11.07;;;;;;;4.72;100.00;100923.59;5063884;28;20108;-70
2022/01/07 03:44:15;;;;;;;13.60;11.07;;;;;;;4.65;100.00;100914.78;5059473;28;20035;-69
2022/01/07 03:46:41;;;;;;;15.55;10.30;;;;;;;4.50;100.00;100902.53;5062057;28;20055;-69
2022/01/07 03:49:06;;;;;;;13.00;10.13;;;;;;;4.66;100.00;100902.84;5045556;28;20045;-70
2022/01/07 03:51:31;;;;;;;15.27;10.88;;;;;;;4.54;100.00;100898.28;5027272;28;20079;-69
2022/01/07 03:53:57;;;;;;;12.27;9.82;;;;;;;4.72;100.00;100896.44;5041993;28;20348;-70
2022/01/07 03:56:22;;;;;;;11.20;10.02;;;;;;;4.48;100.00;100899.22;5042464;28;20112;-70
2022/01/07 03:58:48;;;;;;;13.98;9.98;;;;;;;4.57;100.00;100883.38;5024984;28;20040;-70
2022/01/07 04:01:14;;;;;;;12.43;9.75;;;;;;;4.77;100.00;100891.94;5022077;28;20597;-71
2022/01/07 04:03:40;;;;;;;14.30;10.35;;;;;;;4.80;100.00;100887.91;5044648;28;20874;-71
2022/01/07 04:06:05;;;;;;;11.88;10.35;;;;;;;4.77;100.00;100889.22;5053399;28;20024;-71
2022/01/07 04:08:31;;;;;;;15.43;10.50;;;;;;;4.72;100.00;100896.44;5065248;28;20033;-71
2022/01/07 04:10:57;;;;;;;15.20;10.07;;;;;;;4.61;100.00;100884.56;5022671;28;20052;-70
2022/01/07 04:13:22;;;;;;;12.55;9.70;;;;;;;4.61;100.00;100887.28;5025700;28;20033;-70
2022/01/07 04:15:48;;;;;;;12.30;10.35;;;;;;;4.62;100.00;100874.50;5049988;28;20400;-70
2022/01/07 04:18:13;;;;;;;12.02;10.10;;;;;;;4.46;100.00;100892.38;5029966;28;20304;-70
2022/01/07 04:20:39;;;;;;;12.82;10.90;;;;;;;4.64;100.00;100877.81;5043981;28;20112;-70
2022/01/07 04:23:06;;;;;;;12.23;10.27;;;;;;;4.76;100.00;100893.00;5061069;28;20028;-70
2022/01/07 04:25:33;;;;;;;15.00;10.00;;;;;;;4.64;100.00;100875.94;5064984;28;20098;-70
2022/01/07 04:28:01;;;;;;;12.18;9.93;;;;;;;4.73;100.00;100884.50;5058132;28;20027;-70
2022/01/07 04:30:33;;;;;;;14.85;10.23;;;;;;;4.57;100.00;100896.97;5057138;28;20029;-70
2022/01/07 04:33:01;;;;;;;14.77;10.13;;;;;;;4.76;100.00;100892.19;5041805;28;20051;-70
2022/01/07 04:35:27;;;;;;;13.68;9.70;;;;;;;4.55;100.00;100880.91;5044539;28;20036;-70
2022/01/07 04:37:54;;;;;;;13.52;9.15;;;;;;;4.75;100.00;100896.78;5050583;28;20031;-71
2022/01/07 04:40:20;;;;;;;13.95;10.13;;;;;;;4.93;100.00;100874.00;5035786;28;20037;-70
2022/01/07 04:42:46;;;;;;;11.52;9.07;;;;;;;5.01;100.00;100882.88;5035311;28;20437;-70
2022/01/07 04:45:13;;;;;;;11.48;9.15;;;;;;;4.80;100.00;100879.75;5043005;28;20497;-71
2022/01/07 04:47:39;;;;;;;11.70;9.23;;;;;;;4.91;100.00;100880.78;5061286;28;20036;-70
2022/01/07 04:50:07;;;;;;;11.38;8.43;;;;;;;4.97;100.00;100872.47;5060363;28;20048;-70
2022/01/07 04:52:33;;;;;;;11.48;8.45;;;;;;;4.72;100.00;100867.41;5061915;28;20036;-71
2022/01/07 04:54:58;;;;;;;13.00;8.30;;;;;;;4.70;100.00;100879.56;5061446;28;20076;-71
2022/01/07 04:57:24;;;;;;;15.02;8.25;;;;;;;4.70;100.00;100868.69;5057617;28;20032;-71
2022/01/07 04:59:49;;;;;;;13.63;9.10;;;;;;;4.72;100.00;100872.84;5061589;28;20040;-70
2022/01/07 05:02:15;;;;;;;18.55;9.32;;;;;;;4.82;100.00;100879.50;5041432;28;20299;-69
2022/01/07 05:04:40;;;;;;;13.95;9.98;;;;;;;4.87;100.00;100880.44;5025096;28;20033;-69
2022/01/07 05:07:05;;;;;;;21.20;10.98;;;;;;;4.83;100.00;100884.69;5041468;28;20067;-69
2022/01/07 05:09:31;;;;;;;15.75;10.93;;;;;;;5.00;100.00;100882.03;5044237;28;20428;-69
2022/01/07 05:11:57;;;;;;;13.48;10.98;;;;;;;5.20;100.00;100878.00;5039492;28;20114;-69
2022/01/07 05:14:23;;;;;;;15.43;10.52;;;;;;;5.13;100.00;100891.75;5039071;28;20094;-70
2022/01/07 05:16:48;;;;;;;16.88;10.93;;;;;;;5.29;100.00;100888.25;5024425;28;20392;-70
2022/01/07 05:19:14;;;;;;;20.73;11.43;;;;;;;5.24;100.00;100879.19;5040107;28;20872;-69
2022/01/07 05:21:39;;;;;;;17.02;10.38;;;;;;;5.39;100.00;100884.88;5042384;28;20323;-71
2022/01/07 05:24:06;;;;;;;19.00;11.57;;;;;;;5.36;100.00;100888.06;5039622;28;20333;-70
2022/01/07 05:26:32;;;;;;;18.42;10.95;;;;;;;5.04;100.00;100885.09;5029695;28;20368;-70
2022/01/07 05:28:58;;;;;;;17.48;11.07;;;;;;;5.30;100.00;100891.81;5053845;28;20040;-70
2022/01/07 05:31:25;;;;;;;13.07;9.95;;;;;;;5.11;100.00;100885.75;5037306;28;20082;-70
2022/01/07 05:33:54;;;;;;;16.65;10.70;;;;;;;5.04;100.00;100875.03;5067058;28;20036;-69
2022/01/07 05:36:20;;;;;;;18.52;9.52;;;;;;;5.10;100.00;100876.78;5053539;28;20452;-69
2022/01/07 05:38:47;;;;;;;19.77;10.57;;;;;;;5.00;100.00;100876.63;5058389;28;20317;-69
2022/01/07 05:41:13;;;;;;;13.13;9.00;;;;;;;5.14;100.00;100877.94;5055946;28;20051;-69
2022/01/07 05:43:39;;;;;;;20.58;10.13;;;;;;;5.10;100.00;100886.81;5061442;28;20032;-69
2022/01/07 05:46:05;;;;;;;19.58;9.52;;;;;;;5.11;100.00;100881.13;5060455;28;20044;-70
2022/01/07 05:48:32;;;;;;;16.85;9.43;;;;;;;5.05;100.00;100887.56;5055222;28;20044;-70
2022/01/07 05:50:58;;;;;;;16.45;9.43;;;;;;;5.21;100.00;100891.34;5045445;28;20053;-69
2022/01/07 05:53:24;;;;;;;14.27;10.65;;;;;;;5.34;100.00;100896.50;5029693;28;20116;-69
2022/01/07 05:55:50;;;;;;;16.83;9.93;;;;;;;5.33;100.00;100899.47;5057248;28;20127;-69
2022/01/07 05:58:16;;;;;;;25.63;10.88;;;;;;;5.30;100.00;100903.50;5021415;28;20109;-69
2022/01/07 06:00:41;;;;;;;17.73;10.95;;;;;;;5.10;100.00;100903.97;5042711;28;20036;-70
2022/01/07 06:03:07;;;;;;;19.75;11.20;;;;;;;5.24;100.00;100903.66;5039199;28;20047;-69
2022/01/07 06:05:32;;;;;;;21.90;11.88;;;;;;;4.98;100.00;100897.75;5041633;28;20040;-70
2022/01/07 06:07:58;;;;;;;20.42;12.02;;;;;;;5.11;100.00;100899.34;5051638;28;20059;-70
2022/01/07 06:10:24;;;;;;;19.58;11.93;;;;;;;5.05;100.00;100893.00;5051065;28;20040;-71
2022/01/07 06:12:49;;;;;;;21.20;12.20;;;;;;;5.06;100.00;100893.81;5042107;28;20036;-71
2022/01/07 06:15:15;;;;;;;23.33;13.32;;;;;;;5.05;100.00;100895.72;5043912;28;20502;-71
2022/01/07 06:17:40;;;;;;;20.17;13.20;;;;;;;5.09;100.00;100899.59;5052135;28;20044;-70
2022/01/07 06:20:07;;;;;;;20.88;13.05;;;;;;;5.10;100.00;100893.09;5057974;28;20044;-70
2022/01/07 06:22:34;;;;;;;24.00;13.93;;;;;;;5.13;100.00;100879.03;5028019;28;20112;-70
2022/01/07 06:25:01;;;;;;;23.42;12.70;;;;;;;5.24;100.00;100882.72;5046346;28;20044;-71
2022/01/07 06:27:28;;;;;;;19.38;12.88;;;;;;;5.39;100.00;100874.00;5059101;28;20127;-71
2022/01/07 06:29:54;;;;;;;21.85;12.60;;;;;;;5.33;100.00;100873.09;5044279;28;20437;-70
2022/01/07 06:32:20;;;;;;;21.75;13.02;;;;;;;5.27;100.00;100875.97;5056919;28;20033;-71
2022/01/07 06:34:46;;;;;;;21.92;14.55;;;;;;;5.20;100.00;100884.28;5023765;28;20484;-70
2022/01/07 06:37:12;;;;;;;28.92;14.00;;;;;;;5.29;100.00;100885.53;5044981;28;20108;-71
2022/01/07 06:39:37;;;;;;;18.98;13.43;;;;;;;5.26;100.00;100887.91;5024204;28;20532;-70
2022/01/07 06:42:04;;;;;;;21.40;13.68;;;;;;;5.25;100.00;100892.53;5038649;28;20119;-71
2022/01/07 06:44:30;;;;;;;19.65;14.55;;;;;;;5.23;100.00;100882.97;5038504;28;20025;-71
2022/01/07 06:46:55;;;;;;;28.08;14.32;;;;;;;5.29;100.00;100890.16;5061950;28;20086;-72
2022/01/07 06:49:21;;;;;;;19.40;13.07;;;;;;;5.26;100.00;100887.91;5057884;28;20075;-70
2022/01/07 06:51:46;;;;;;;18.85;14.40;;;;;;;5.19;100.00;100887.25;5026281;28;20040;-70
2022/01/07 06:54:12;;;;;;;20.15;13.55;;;;;;;5.27;100.00;100897.72;5044011;28;20036;-70
2022/01/07 06:56:42;;;;;;;22.30;15.85;;;;;;;5.12;100.00;100890.94;5063267;28;20399;-70
2022/01/07 06:59:08;;;;;;;25.67;15.18;;;;;;;5.19;100.00;100890.78;5060012;28;20032;-70
2022/01/07 07:01:34;;;;;;;26.95;16.30;;;;;;;5.17;100.00;100879.34;5046852;28;20028;-70
2022/01/07 07:04:00;;;;;;;20.58;15.80;;;;;;;5.33;100.00;100877.72;5063741;28;20048;-70
2022/01/07 07:06:25;;;;;;;19.55;15.55;;;;;;;5.19;100.00;100870.94;5061635;28;20059;-70
2022/01/07 07:08:50;;;;;;;24.45;15.32;;;;;;;5.24;100.00;100871.84;5065620;28;20077;-70
2022/01/07 07:11:16;;;;;;;22.17;14.93;;;;;;;5.38;100.00;100885.97;5061625;28;20752;-71
2022/01/07 07:13:41;;;;;;;23.65;16.20;;;;;;;5.45;100.00;100873.00;5062724;28;20040;-71
2022/01/07 07:16:08;;;;;;;22.35;16.92;;;;;;;5.49;100.00;100865.19;5046708;28;20040;-71
2022/01/07 07:18:33;;;;;;;23.90;16.33;;;;;;;5.39;100.00;100870.47;5029067;28;20226;-70
2022/01/07 07:20:58;;;;;;;23.10;15.73;;;;;;;5.29;100.00;100874.66;5047484;28;20203;-70
2022/01/07 07:23:24;;;;;;;21.23;15.10;;;;;;;5.41;100.00;100876.47;5063611;28;20039;-70
2022/01/07 07:25:52;;;;;;;25.05;16.40;;;;;;;5.43;100.00;100879.78;5041859;28;20036;-70
2022/01/07 07:28:19;;;;;;;25.58;15.27;;;;;;;5.45;100.00;100869.47;5005413;28;20033;-70
2022/01/07 07:30:45;;;;;;;19.70;13.88;;;;;;;5.34;100.00;100877.47;5046282;28;20028;-71
2022/01/07 07:38:41;;;;;;;15.65;9.93;;;;;;;5.36;100.00;100871.75;5065129;28;20055;-71
2022/01/07 07:41:07;;;;;;;21.35;9.75;;;;;;;5.18;100.00;100870.09;5062710;28;20475;-71
2022/01/07 07:43:34;;;;;;;18.88;9.70;;;;;;;5.26;100.00;100877.03;5038125;28;20037;-71
2022/01/07 07:46:00;;;;;;;13.68;8.60;;;;;;;5.20;100.00;100868.00;5042601;28;20419;-70
2022/01/07 07:48:25;;;;;;;16.35;8.52;;;;;;;5.14;100.00;100880.66;5042463;28;20029;-71
2022/01/07 07:50:51;;;;;;;13.77;8.30;;;;;;;5.14;100.00;100879.84;5043837;28;20514;-70
2022/01/07 07:53:16;;;;;;;15.88;7.45;;;;;;;5.03;100.00;100894.31;5040806;28;20116;-72
2022/01/07 07:55:43;;;;;;;14.07;7.18;;;;;;;5.11;100.00;100883.03;5044623;28;20457;-71
2022/01/07 07:58:10;;;;;;;14.38;7.28;;;;;;;5.08;100.00;100888.97;5054912;28;20020;-70
2022/01/07 08:00:35;;;;;;;17.23;7.63;;;;;;;5.13;100.00;100903.47;5047144;28;20169;-71
2022/01/07 08:03:01;;;;;;;19.38;7.30;;;;;;;5.23;100.00;100899.28;5061999;28;20123;-71
2022/01/07 08:05:27;;;;;;;14.40;7.00;;;;;;;5.27;100.00;100898.53;5063446;28;20025;-71
2022/01/07 08:07:52;;;;;;;15.80;6.93;;;;;;;5.26;100.00;100898.78;5064599;28;20035;-71
2022/01/07 08:10:23;;;;;;;15.23;6.30;;;;;;;5.34;100.00;100891.06;5035777;28;20553;-71
2022/01/07 08:18:20;;;;;;;14.63;6.05;;;;;;;5.44;100.00;100879.50;5055519;28;20060;-70
2022/01/07 08:20:47;;;;;;;14.90;6.40;;;;;;;5.50;100.00;100883.16;5043733;28;20039;-70
2022/01/07 08:23:13;;;;;;;12.27;5.53;;;;;;;5.61;100.00;100884.97;5041236;28;20106;-73
2022/01/07 08:25:39;;;;;;;25.08;5.50;;;;;;;5.64;100.00;100878.19;5022766;28;20028;-72
2022/01/07 08:28:06;;;;;;;16.00;5.78;;;;;;;5.78;100.00;100889.56;5023637;28;20032;-72
2022/01/07 08:30:59;;;;;;;21.25;5.75;;;;;;;5.62;100.00;100891.22;5025816;28;20075;-71
2022/01/07 08:36:04;;;;;;;14.95;5.68;;;;;;;6.03;100.00;100880.97;5064136;28;20059;-73
2022/01/07 08:38:30;;;;;;;13.18;5.00;;;;;;;6.32;100.00;100894.44;5065171;28;20048;-70
2022/01/07 08:40:56;;;;;;;17.73;6.32;;;;;;;6.68;100.00;100892.16;5054302;28;20102;-69
2022/01/07 08:43:22;;;;;;;11.88;5.13;;;;;;;6.74;100.00;100889.25;5019279;28;20032;-71
2022/01/07 08:45:47;;;;;;;19.42;4.78;;;;;;;6.81;100.00;100891.78;5024440;28;20029;-72
2022/01/07 08:48:14;;;;;;;11.80;4.10;;;;;;;6.95;100.00;100892.19;5052844;28;20073;-72
2022/01/07 08:50:39;;;;;;;13.20;5.15;;;;;;;6.92;100.00;100885.34;5025371;28;20052;-73
2022/01/07 08:53:05;;;;;;;15.02;5.05;;;;;;;7.03;100.00;100882.72;5010187;28;20051;-71
2022/01/07 08:55:30;;;;;;;14.35;5.15;;;;;;;6.42;100.00;100883.69;5025292;28;20063;-71
2022/01/07 08:57:55;;;;;;;15.45;5.30;;;;;;;6.32;100.00;100883.56;5049611;28;20028;-72
2022/01/07 09:00:21;;;;;;;12.93;4.55;;;;;;;6.01;100.00;100878.50;5042065;28;20123;-71
2022/01/07 09:02:46;;;;;;;15.88;4.82;;;;;;;6.16;100.00;100896.94;5026058;28;20033;-72
2022/01/07 09:05:12;;;;;;;17.30;5.53;;;;;;;5.71;100.00;100889.75;5043787;28;20037;-69
2022/01/07 09:07:37;;;;;;;13.70;4.70;;;;;;;5.67;100.00;100880.41;5040828;28;20448;-69
2022/01/07 09:10:03;;;;;;;15.45;5.18;;;;;;;5.73;100.00;100876.72;5050356;28;20036;-70
2022/01/07 09:12:29;;;;;;;19.42;5.75;;;;;;;5.92;100.00;100880.00;5050092;28;20132;-70
2022/01/07 09:14:55;;;;;;;14.55;5.38;;;;;;;5.87;100.00;100879.91;5044148;28;20040;-70
2022/01/07 09:17:21;;;;;;;14.32;5.97;;;;;;;5.74;100.00;100874.81;5045191;28;20447;-70
2022/01/07 09:19:47;;;;;;;24.77;5.82;;;;;;;5.64;100.00;100884.47;5046813;28;20037;-71
2022/01/07 09:22:12;;;;;;;17.70;6.25;;;;;;;5.54;100.00;100887.00;5044987;28;20367;-70
2022/01/07 09:24:37;;;;;;;15.23;5.53;;;;;;;5.24;100.00;100901.75;5024783;28;20363;-68
2022/01/07 09:27:03;;;;;;;18.23;6.63;;;;;;;4.83;100.00;100917.31;5042585;28;20420;-70
2022/01/07 09:29:29;;;;;;;19.92;6.93;;;;;;;4.96;100.00;100902.59;5022547;28;20053;-70
2022/01/07 09:31:55;;;;;;;13.43;5.82;;;;;;;4.99;100.00;100896.69;5052621;28;20040;-69
2022/01/07 09:34:22;;;;;;;18.30;6.60;;;;;;;5.09;100.00;100883.28;5060682;28;20040;-69
2022/01/07 09:36:47;;;;;;;21.35;6.85;;;;;;;5.30;100.00;100889.09;5049296;28;20086;-70
2022/01/07 09:39:13;;;;;;;18.23;6.60;;;;;;;5.34;100.00;100884.78;5042974;28;20036;-70
2022/01/07 09:41:39;;;;;;;18.70;6.78;;;;;;;5.64;100.00;100880.91;5038194;28;20661;-70
2022/01/07 09:44:09;;;;;;;20.70;7.05;;;;;;;5.60;100.00;100883.31;5031420;28;20032;-70
2022/01/07 09:46:35;;;;;;;16.25;6.93;;;;;;;5.60;100.00;100880.59;5046235;28;20029;-70
2022/01/07 09:49:00;;;;;;;14.93;6.47;;;;;;;5.52;100.00;100889.16;5053837;28;20044;-69
2022/01/07 09:51:27;;;;;;;19.20;6.82;;;;;;;5.76;100.00;100884.38;5038037;28;20404;-69
2022/01/07 09:53:52;;;;;;;16.40;6.32;;;;;;;5.76;100.00;100880.84;5024493;28;20055;-69
2022/01/07 09:56:19;;;;;;;23.02;5.15;;;;;;;5.76;100.00;100878.94;5037579;28;20435;-69
2022/01/07 09:58:45;;;;;;;14.32;4.32;;;;;;;5.66;100.00;100884.22;5047063;28;20428;-69
2022/01/07 10:01:13;;;;;;;18.77;4.30;;;;;;;5.80;100.00;100887.41;5040661;28;20072;-69
2022/01/07 10:03:43;;;;;;;12.85;2.90;;;;;;;5.91;100.00;100885.69;5038379;28;20067;-69
2022/01/07 10:06:22;;;;;;;12.65;2.50;;;;;;;5.73;100.00;100890.31;5057141;28;20042;-69
2022/01/07 10:09:07;;;;;;;12.07;2.53;;;;;;;5.80;100.00;100880.06;5062260;28;20039;-68
2022/01/07 10:11:34;;;;;;;15.18;2.72;;;;;;;5.74;100.00;100883.81;5057779;28;20055;-68
2022/01/07 10:14:22;;;;;;;14.45;2.63;;;;;;;5.94;100.00;100880.56;5060341;28;20046;-71
2022/01/07 10:16:53;;;;;;;11.50;2.53;;;;;;;5.74;100.00;100891.13;5039848;28;20029;-68
2022/01/07 10:19:29;;;;;;;13.90;2.38;;;;;;;5.50;100.00;100883.97;5042910;28;20460;-69
2022/01/07 10:21:58;;;;;;;13.95;2.50;;;;;;;5.74;100.00;100891.97;5041159;28;20165;-68
2022/01/07 10:24:24;;;;;;;11.80;2.10;;;;;;;5.81;100.00;100889.91;5039969;28;20024;-69
2022/01/07 10:27:13;;;;;;;17.92;2.72;;;;;;;5.83;100.00;100893.19;5037639;28;20487;-68
2022/01/07 10:29:43;;;;;;;15.27;2.45;;;;;;;6.02;100.00;100896.50;5040374;28;20029;-69
2022/01/07 10:32:38;;;;;;;17.85;2.53;;;;;;;5.69;100.00;100895.44;5023784;28;20147;-69
2022/01/07 10:35:09;;;;;;;17.25;2.40;;;;;;;5.91;100.00;100899.28;5035411;28;20045;-69
2022/01/07 10:37:36;;;;;;;13.73;3.05;;;;;;;5.83;100.00;100890.47;5053192;28;20027;-68
2022/01/07 10:40:21;;;;;;;14.30;2.33;;;;;;;5.74;100.00;100889.25;5031615;28;20124;-70
2022/01/07 10:42:47;;;;;;;12.23;2.97;;;;;;;5.96;100.00;100888.47;5036827;28;20040;-68
2022/01/07 10:45:12;;;;;;;13.95;2.28;;;;;;;5.98;100.00;100892.63;5040434;28;20037;-68
2022/01/07 10:47:37;;;;;;;14.55;2.40;;;;;;;6.04;100.00;100879.91;5021650;28;20060;-69
2022/01/07 10:50:36;;;;;;;9.02;2.22;;;;;;;6.23;100.00;100886.72;5042009;28;20103;-70
2022/01/07 10:53:19;;;;;;;18.63;3.92;;;;;;;6.40;100.00;100874.94;5030868;28;20091;-69
2022/01/07 10:55:59;;;;;;;12.85;2.25;;;;;;;6.52;100.00;100883.78;5039559;28;20033;-69
2022/01/07 10:58:25;;;;;;;13.75;2.42;;;;;;;6.81;100.00;100872.69;5049960;28;20112;-69
2022/01/07 11:00:51;;;;;;;15.63;2.85;;;;;;;6.72;100.00;100882.38;5062730;28;20040;-71
2022/01/07 11:03:16;;;;;;;13.45;2.40;;;;;;;6.56;100.00;100884.09;5044765;28;20340;-68
2022/01/07 11:05:42;;;;;;;12.93;2.30;;;;;;;6.70;100.00;100900.91;5060496;28;20755;-69
2022/01/07 11:08:08;;;;;;;15.60;3.05;;;;;;;6.53;100.00;100885.44;5038628;28;20033;-69
2022/01/07 11:10:36;;;;;;;14.85;2.53;;;;;;;6.63;100.00;100884.75;5022214;28;20040;-69
2022/01/07 11:13:02;;;;;;;11.15;2.80;;;;;;;6.80;100.00;100888.22;5038186;28;20040;-69
2022/01/07 11:15:28;;;;;;;8.30;1.80;;;;;;;6.87;100.00;100888.03;5042507;28;20029;-68
2022/01/07 11:17:54;;;;;;;15.25;2.05;;;;;;;6.35;100.00;100878.41;5038505;28;20035;-67
2022/01/07 11:20:24;;;;;;;10.05;1.90;;;;;;;6.72;100.00;100876.94;5025562;28;20033;-68
2022/01/07 11:22:50;;;;;;;9.23;2.40;;;;;;;7.02;100.00;100865.56;5040008;28;20044;-69
2022/01/07 11:25:17;;;;;;;9.73;2.08;;;;;;;7.04;100.00;100857.13;5024473;28;20040;-69
2022/01/07 11:27:54;;;;;;;10.27;2.03;;;;;;;7.10;100.00;100858.78;5053433;28;20457;-68